sensor_id;sensor_type;location;lat;lon;timestamp;temperature;humidity
46508;DHT22;32223;53.654;10.014;2023-05-15T00:00:39;11.90;99.90
46508;DHT22;32223;53.654;10.014;2023-05-15T00:03:05;11.90;99.90
46508;DHT22;32223;53.654;10.014;2023-05-15T00:05:31;11.80;99.90
46508;DHT22;32223;53.654;10.014;2023-05-15T00:07:57;11.80;99.90
46508;DHT22;32223;53.654;10.014;2023-05-15T00:10:22;11.80;99.90
46508;DHT22;32223;53.654;10.014;2023-05-15T00:12:48;11.80;99.90
46508;DHT22;32223;53.654;10.014;2023-05-15T00:15:14;11.80;99.90
46508;DHT22;32223;53.654;10.014;2023-05-15T00:17:40;11.70;99.90
46508;DHT22;32223;53.654;10.014;2023-05-15T00:20:06;11.60;99.90
46508;DHT22;32223;53.654;10.014;2023-05-15T00:22:34;11.50;99.90
46508;DHT22;32223;53.654;10.014;2023-05-15T00:25:00;11.50;99.90
46508;DHT22;32223;53.654;10.014;2023-05-15T00:27:25;11.50;99.90
46508;DHT22;32223;53.654;10.014;2023-05-15T00:29:52;11.40;99.90
46508;DHT22;32223;53.654;10.014;2023-05-15T00:32:18;11.40;99.90
46508;DHT22;32223;53.654;10.014;2023-05-15T00:34:43;11.30;99.90
46508;DHT22;32223;53.654;10.014;2023-05-15T00:37:09;11.30;99.90
46508;DHT22;32223;53.654;10.014;2023-05-15T00:39:35;11.20;99.90
46508;DHT22;32223;53.654;10.014;2023-05-15T00:42:02;11.20;99.90
46508;DHT22;32223;53.654;10.014;2023-05-15T00:44:30;11.20;99.90
46508;DHT22;32223;53.654;10.014;2023-05-15T00:46:57;11.20;99.90
46508;DHT22;32223;53.654;10.014;2023-05-15T00:49:23;11.20;99.90
46508;DHT22;32223;53.654;10.014;2023-05-15T00:51:52;11.10;99.90
46508;DHT22;32223;53.654;10.014;2023-05-15T00:54:17;11.10;99.90
46508;DHT22;32223;53.654;10.014;2023-05-15T00:56:45;11.10;99.90
46508;DHT22;32223;53.654;10.014;2023-05-15T00:59:12;11.10;99.90
46508;DHT22;32223;53.654;10.014;2023-05-15T01:01:38;11.10;99.90
46508;DHT22;32223;53.654;10.014;2023-05-15T01:04:03;11.10;99.90
46508;DHT22;32223;53.654;10.014;2023-05-15T01:06:30;11.00;99.90
46508;DHT22;32223;53.654;10.014;2023-05-15T01:08:58;11.00;99.90
46508;DHT22;32223;53.654;10.014;2023-05-15T01:11:26;11.00;99.90
46508;DHT22;32223;53.654;10.014;2023-05-15T01:13:52;11.00;99.90
46508;DHT22;32223;53.654;10.014;2023-05-15T01:16:20;11.00;99.90
46508;DHT22;32223;53.654;10.014;2023-05-15T01:18:46;10.90;99.90
46508;DHT22;32223;53.654;10.014;2023-05-15T01:32:05;10.80;99.90
46508;DHT22;32223;53.654;10.014;2023-05-15T01:34:42;10.80;99.90
46508;DHT22;32223;53.654;10.014;2023-05-15T01:37:10;10.80;99.90
46508;DHT22;32223;53.654;10.014;2023-05-15T01:39:41;10.80;99.90
46508;DHT22;32223;53.654;10.014;2023-05-15T01:42:09;10.80;99.90
46508;DHT22;32223;53.654;10.014;2023-05-15T01:44:40;10.70;99.90
46508;DHT22;32223;53.654;10.014;2023-05-15T01:47:13;10.70;99.90
46508;DHT22;32223;53.654;10.014;2023-05-15T01:49:42;10.60;99.90
46508;DHT22;32223;53.654;10.014;2023-05-15T01:52:17;10.60;99.90
46508;DHT22;32223;53.654;10.014;2023-05-15T01:54:44;10.60;99.90
46508;DHT22;32223;53.654;10.014;2023-05-15T01:57:10;10.50;99.90
46508;DHT22;32223;53.654;10.014;2023-05-15T01:59:36;10.50;99.90
46508;DHT22;32223;53.654;10.014;2023-05-15T02:02:04;10.50;99.90
46508;DHT22;32223;53.654;10.014;2023-05-15T02:04:30;10.40;99.90
46508;DHT22;32223;53.654;10.014;2023-05-15T02:07:00;10.40;99.90
46508;DHT22;32223;53.654;10.014;2023-05-15T02:09:25;10.40;99.90
46508;DHT22;32223;53.654;10.014;2023-05-15T02:11:53;10.30;99.90
46508;DHT22;32223;53.654;10.014;2023-05-15T02:14:19;10.30;99.90
46508;DHT22;32223;53.654;10.014;2023-05-15T02:16:45;10.30;99.90
46508;DHT22;32223;53.654;10.014;2023-05-15T02:19:11;10.30;99.90
46508;DHT22;32223;53.654;10.014;2023-05-15T02:21:36;10.20;99.90
46508;DHT22;32223;53.654;10.014;2023-05-15T02:24:02;10.20;99.90
46508;DHT22;32223;53.654;10.014;2023-05-15T02:29:30;10.20;99.90
46508;DHT22;32223;53.654;10.014;2023-05-15T02:37:22;10.10;99.90
46508;DHT22;32223;53.654;10.014;2023-05-15T02:39:50;10.00;99.90
46508;DHT22;32223;53.654;10.014;2023-05-15T02:42:19;10.00;99.90
46508;DHT22;32223;53.654;10.014;2023-05-15T02:44:46;10.00;99.90
46508;DHT22;32223;53.654;10.014;2023-05-15T02:47:13;10.00;99.90
46508;DHT22;32223;53.654;10.014;2023-05-15T02:49:39;9.90;99.90
46508;DHT22;32223;53.654;10.014;2023-05-15T02:52:05;10.00;99.90
46508;DHT22;32223;53.654;10.014;2023-05-15T02:54:31;9.90;99.90
46508;DHT22;32223;53.654;10.014;2023-05-15T02:56:57;9.90;99.90
46508;DHT22;32223;53.654;10.014;2023-05-15T02:59:22;9.90;99.90
46508;DHT22;32223;53.654;10.014;2023-05-15T03:01:48;9.90;99.90
46508;DHT22;32223;53.654;10.014;2023-05-15T03:04:14;9.90;99.90
46508;DHT22;32223;53.654;10.014;2023-05-15T03:06:40;9.90;99.90
46508;DHT22;32223;53.654;10.014;2023-05-15T03:09:05;9.90;99.90
46508;DHT22;32223;53.654;10.014;2023-05-15T03:11:31;9.90;99.90
46508;DHT22;32223;53.654;10.014;2023-05-15T03:13:56;9.90;99.90
46508;DHT22;32223;53.654;10.014;2023-05-15T03:16:24;9.90;99.90
46508;DHT22;32223;53.654;10.014;2023-05-15T03:18:51;9.80;99.90
46508;DHT22;32223;53.654;10.014;2023-05-15T03:21:17;9.90;99.90
46508;DHT22;32223;53.654;10.014;2023-05-15T03:23:43;9.80;99.90
46508;DHT22;32223;53.654;10.014;2023-05-15T03:26:08;9.80;99.90
46508;DHT22;32223;53.654;10.014;2023-05-15T03:28:34;9.80;99.90
46508;DHT22;32223;53.654;10.014;2023-05-15T03:30:59;9.80;99.90
46508;DHT22;32223;53.654;10.014;2023-05-15T03:33:25;9.70;99.90
46508;DHT22;32223;53.654;10.014;2023-05-15T03:35:51;9.70;99.90
46508;DHT22;32223;53.654;10.014;2023-05-15T03:38:17;9.70;99.90
46508;DHT22;32223;53.654;10.014;2023-05-15T03:40:42;9.70;99.90
46508;DHT22;32223;53.654;10.014;2023-05-15T03:43:08;9.70;99.90
46508;DHT22;32223;53.654;10.014;2023-05-15T03:45:34;9.70;99.90
46508;DHT22;32223;53.654;10.014;2023-05-15T03:48:00;9.70;99.90
46508;DHT22;32223;53.654;10.014;2023-05-15T03:50:26;9.70;99.90
46508;DHT22;32223;53.654;10.014;2023-05-15T03:52:51;9.80;99.90
46508;DHT22;32223;53.654;10.014;2023-05-15T03:55:17;9.80;99.90
46508;DHT22;32223;53.654;10.014;2023-05-15T03:57:43;9.80;99.90
46508;DHT22;32223;53.654;10.014;2023-05-15T04:00:09;9.80;99.90
46508;DHT22;32223;53.654;10.014;2023-05-15T04:02:36;9.80;99.90
46508;DHT22;32223;53.654;10.014;2023-05-15T04:05:03;10.00;99.90
46508;DHT22;32223;53.654;10.014;2023-05-15T04:07:30;10.20;99.90
46508;DHT22;32223;53.654;10.014;2023-05-15T04:09:55;10.40;99.90
46508;DHT22;32223;53.654;10.014;2023-05-15T04:12:21;10.50;99.90
46508;DHT22;32223;53.654;10.014;2023-05-15T04:14:47;10.60;99.90
46508;DHT22;32223;53.654;10.014;2023-05-15T04:17:12;10.70;99.90
46508;DHT22;32223;53.654;10.014;2023-05-15T04:19:38;10.70;99.90
46508;DHT22;32223;53.654;10.014;2023-05-15T04:22:04;10.80;99.90
46508;DHT22;32223;53.654;10.014;2023-05-15T04:24:30;10.90;99.90
46508;DHT22;32223;53.654;10.014;2023-05-15T04:26:56;10.90;99.90
46508;DHT22;32223;53.654;10.014;2023-05-15T04:29:21;11.10;99.90
46508;DHT22;32223;53.654;10.014;2023-05-15T04:31:47;11.10;99.90
46508;DHT22;32223;53.654;10.014;2023-05-15T04:34:13;11.10;99.90
46508;DHT22;32223;53.654;10.014;2023-05-15T04:36:38;11.20;99.90
46508;DHT22;32223;53.654;10.014;2023-05-15T04:39:04;11.30;99.90
46508;DHT22;32223;53.654;10.014;2023-05-15T04:41:29;11.30;99.90
46508;DHT22;32223;53.654;10.014;2023-05-15T04:43:57;11.40;99.90
46508;DHT22;32223;53.654;10.014;2023-05-15T04:46:23;11.50;99.90
46508;DHT22;32223;53.654;10.014;2023-05-15T04:48:48;11.50;99.90
46508;DHT22;32223;53.654;10.014;2023-05-15T04:51:14;11.50;99.90
46508;DHT22;32223;53.654;10.014;2023-05-15T04:53:39;11.60;99.90
46508;DHT22;32223;53.654;10.014;2023-05-15T04:56:05;11.60;99.90
46508;DHT22;32223;53.654;10.014;2023-05-15T04:58:31;11.70;99.90
46508;DHT22;32223;53.654;10.014;2023-05-15T05:00:56;11.70;99.90
46508;DHT22;32223;53.654;10.014;2023-05-15T05:03:22;11.80;99.90
46508;DHT22;32223;53.654;10.014;2023-05-15T05:05:48;11.80;99.90
46508;DHT22;32223;53.654;10.014;2023-05-15T05:08:13;11.90;99.90
46508;DHT22;32223;53.654;10.014;2023-05-15T05:10:39;11.90;99.90
46508;DHT22;32223;53.654;10.014;2023-05-15T05:13:04;12.00;99.90
46508;DHT22;32223;53.654;10.014;2023-05-15T05:15:30;12.10;99.90
46508;DHT22;32223;53.654;10.014;2023-05-15T05:17:56;12.20;99.90
46508;DHT22;32223;53.654;10.014;2023-05-15T05:20:21;12.30;99.90
46508;DHT22;32223;53.654;10.014;2023-05-15T05:22:47;12.40;99.90
46508;DHT22;32223;53.654;10.014;2023-05-15T05:25:13;12.50;99.90
46508;DHT22;32223;53.654;10.014;2023-05-15T05:27:38;12.50;99.90
46508;DHT22;32223;53.654;10.014;2023-05-15T05:30:05;12.50;99.90
46508;DHT22;32223;53.654;10.014;2023-05-15T05:32:31;12.50;99.90
46508;DHT22;32223;53.654;10.014;2023-05-15T05:34:57;12.60;99.90
46508;DHT22;32223;53.654;10.014;2023-05-15T05:37:22;12.70;99.90
46508;DHT22;32223;53.654;10.014;2023-05-15T05:39:48;12.70;99.90
46508;DHT22;32223;53.654;10.014;2023-05-15T05:42:14;12.90;99.90
46508;DHT22;32223;53.654;10.014;2023-05-15T05:44:39;13.20;99.90
46508;DHT22;32223;53.654;10.014;2023-05-15T05:47:05;13.70;99.90
46508;DHT22;32223;53.654;10.014;2023-05-15T05:49:30;14.10;99.90
46508;DHT22;32223;53.654;10.014;2023-05-15T05:51:56;14.30;99.90
46508;DHT22;32223;53.654;10.014;2023-05-15T05:54:28;14.30;99.90
46508;DHT22;32223;53.654;10.014;2023-05-15T05:56:54;14.30;99.90
46508;DHT22;32223;53.654;10.014;2023-05-15T05:59:20;14.30;99.90
46508;DHT22;32223;53.654;10.014;2023-05-15T06:01:45;14.40;99.90
46508;DHT22;32223;53.654;10.014;2023-05-15T06:04:13;14.40;99.90
46508;DHT22;32223;53.654;10.014;2023-05-15T06:06:39;14.50;99.90
46508;DHT22;32223;53.654;10.014;2023-05-15T06:09:05;14.60;99.90
46508;DHT22;32223;53.654;10.014;2023-05-15T06:11:31;14.70;99.90
46508;DHT22;32223;53.654;10.014;2023-05-15T06:13:57;14.80;99.90
46508;DHT22;32223;53.654;10.014;2023-05-15T06:16:23;14.90;99.90
46508;DHT22;32223;53.654;10.014;2023-05-15T06:18:48;15.00;99.90
46508;DHT22;32223;53.654;10.014;2023-05-15T06:21:14;15.10;99.90
46508;DHT22;32223;53.654;10.014;2023-05-15T06:23:39;15.20;99.90
46508;DHT22;32223;53.654;10.014;2023-05-15T06:26:05;15.30;99.90
46508;DHT22;32223;53.654;10.014;2023-05-15T06:28:31;15.50;99.90
46508;DHT22;32223;53.654;10.014;2023-05-15T06:30:56;15.60;99.90
46508;DHT22;32223;53.654;10.014;2023-05-15T06:33:22;15.80;99.90
46508;DHT22;32223;53.654;10.014;2023-05-15T06:35:47;15.90;99.90
46508;DHT22;32223;53.654;10.014;2023-05-15T06:38:13;16.10;99.90
46508;DHT22;32223;53.654;10.014;2023-05-15T06:40:39;16.20;99.90
46508;DHT22;32223;53.654;10.014;2023-05-15T06:43:04;16.40;99.90
46508;DHT22;32223;53.654;10.014;2023-05-15T06:45:30;16.40;99.90
46508;DHT22;32223;53.654;10.014;2023-05-15T06:47:56;16.30;99.90
46508;DHT22;32223;53.654;10.014;2023-05-15T06:50:21;16.40;99.90
46508;DHT22;32223;53.654;10.014;2023-05-15T06:52:47;16.50;99.90
46508;DHT22;32223;53.654;10.014;2023-05-15T06:55:13;16.50;99.90
46508;DHT22;32223;53.654;10.014;2023-05-15T06:57:38;16.60;99.90
46508;DHT22;32223;53.654;10.014;2023-05-15T07:00:04;16.80;99.90
46508;DHT22;32223;53.654;10.014;2023-05-15T07:02:30;17.00;99.90
46508;DHT22;32223;53.654;10.014;2023-05-15T07:04:56;17.10;99.90
46508;DHT22;32223;53.654;10.014;2023-05-15T07:07:21;17.30;99.90
46508;DHT22;32223;53.654;10.014;2023-05-15T07:09:47;17.40;99.90
46508;DHT22;32223;53.654;10.014;2023-05-15T07:12:14;17.50;99.90
46508;DHT22;32223;53.654;10.014;2023-05-15T07:14:40;17.60;99.90
46508;DHT22;32223;53.654;10.014;2023-05-15T07:17:05;17.70;99.90
46508;DHT22;32223;53.654;10.014;2023-05-15T07:19:31;17.80;99.90
46508;DHT22;32223;53.654;10.014;2023-05-15T07:21:57;17.80;99.90
46508;DHT22;32223;53.654;10.014;2023-05-15T07:24:22;17.80;99.90
46508;DHT22;32223;53.654;10.014;2023-05-15T07:26:48;17.90;99.90
46508;DHT22;32223;53.654;10.014;2023-05-15T07:29:13;18.10;99.90
46508;DHT22;32223;53.654;10.014;2023-05-15T07:31:39;18.20;99.90
46508;DHT22;32223;53.654;10.014;2023-05-15T07:34:06;18.40;99.90
46508;DHT22;32223;53.654;10.014;2023-05-15T07:36:31;18.60;99.90
46508;DHT22;32223;53.654;10.014;2023-05-15T07:38:57;18.70;99.90
46508;DHT22;32223;53.654;10.014;2023-05-15T07:41:23;18.80;99.90
46508;DHT22;32223;53.654;10.014;2023-05-15T07:43:48;18.90;99.90
46508;DHT22;32223;53.654;10.014;2023-05-15T07:46:14;19.00;99.90
46508;DHT22;32223;53.654;10.014;2023-05-15T07:48:40;19.00;99.90
46508;DHT22;32223;53.654;10.014;2023-05-15T07:51:05;19.10;99.90
46508;DHT22;32223;53.654;10.014;2023-05-15T07:53:31;19.20;99.90
46508;DHT22;32223;53.654;10.014;2023-05-15T07:55:58;19.20;99.90
46508;DHT22;32223;53.654;10.014;2023-05-15T07:58:23;19.20;99.90
46508;DHT22;32223;53.654;10.014;2023-05-15T08:00:49;19.30;99.90
46508;DHT22;32223;53.654;10.014;2023-05-15T08:03:14;19.50;99.90
46508;DHT22;32223;53.654;10.014;2023-05-15T08:05:40;19.60;99.90
46508;DHT22;32223;53.654;10.014;2023-05-15T08:08:05;19.70;99.90
46508;DHT22;32223;53.654;10.014;2023-05-15T08:10:31;19.90;99.90
46508;DHT22;32223;53.654;10.014;2023-05-15T08:12:57;20.00;99.90
46508;DHT22;32223;53.654;10.014;2023-05-15T08:15:22;20.10;99.90
46508;DHT22;32223;53.654;10.014;2023-05-15T08:17:48;20.30;99.90
46508;DHT22;32223;53.654;10.014;2023-05-15T08:20:14;20.40;99.90
46508;DHT22;32223;53.654;10.014;2023-05-15T08:22:39;20.40;99.60
46508;DHT22;32223;53.654;10.014;2023-05-15T08:25:06;20.50;99.60
46508;DHT22;32223;53.654;10.014;2023-05-15T08:27:33;20.50;98.40
46508;DHT22;32223;53.654;10.014;2023-05-15T08:29:58;20.50;98.60
46508;DHT22;32223;53.654;10.014;2023-05-15T08:32:24;20.60;97.50
46508;DHT22;32223;53.654;10.014;2023-05-15T08:34:51;20.70;97.70
46508;DHT22;32223;53.654;10.014;2023-05-15T08:37:16;20.80;97.30
46508;DHT22;32223;53.654;10.014;2023-05-15T08:39:42;20.80;96.70
46508;DHT22;32223;53.654;10.014;2023-05-15T08:42:09;20.70;96.20
46508;DHT22;32223;53.654;10.014;2023-05-15T08:44:37;20.80;95.90
46508;DHT22;32223;53.654;10.014;2023-05-15T08:47:04;20.80;95.30
46508;DHT22;32223;53.654;10.014;2023-05-15T08:49:57;20.90;95.20
46508;DHT22;32223;53.654;10.014;2023-05-15T08:52:29;20.90;95.10
46508;DHT22;32223;53.654;10.014;2023-05-15T08:54:57;20.90;95.30
46508;DHT22;32223;53.654;10.014;2023-05-15T08:57:23;21.00;95.10
46508;DHT22;32223;53.654;10.014;2023-05-15T08:59:50;21.00;94.80
46508;DHT22;32223;53.654;10.014;2023-05-15T09:02:17;21.10;94.80
46508;DHT22;32223;53.654;10.014;2023-05-15T09:04:43;21.20;92.80
46508;DHT22;32223;53.654;10.014;2023-05-15T09:07:10;21.20;93.70
46508;DHT22;32223;53.654;10.014;2023-05-15T09:09:36;21.30;93.10
46508;DHT22;32223;53.654;10.014;2023-05-15T09:12:02;21.30;92.90
46508;DHT22;32223;53.654;10.014;2023-05-15T09:14:28;21.30;93.10
46508;DHT22;32223;53.654;10.014;2023-05-15T09:16:54;21.40;92.10
46508;DHT22;32223;53.654;10.014;2023-05-15T09:19:20;21.40;91.40
46508;DHT22;32223;53.654;10.014;2023-05-15T09:21:46;21.50;91.00
46508;DHT22;32223;53.654;10.014;2023-05-15T09:24:22;21.50;91.00
46508;DHT22;32223;53.654;10.014;2023-05-15T09:27:03;21.60;91.00
46508;DHT22;32223;53.654;10.014;2023-05-15T09:29:33;21.70;87.70
46508;DHT22;32223;53.654;10.014;2023-05-15T09:32:08;21.70;88.20
46508;DHT22;32223;53.654;10.014;2023-05-15T09:34:35;21.60;88.50
46508;DHT22;32223;53.654;10.014;2023-05-15T09:37:03;21.60;87.80
46508;DHT22;32223;53.654;10.014;2023-05-15T09:39:29;21.80;87.50
46508;DHT22;32223;53.654;10.014;2023-05-15T09:42:12;21.80;87.60
46508;DHT22;32223;53.654;10.014;2023-05-15T09:44:42;22.00;86.90
46508;DHT22;32223;53.654;10.014;2023-05-15T09:47:09;22.10;88.20
46508;DHT22;32223;53.654;10.014;2023-05-15T09:49:35;22.00;86.70
46508;DHT22;32223;53.654;10.014;2023-05-15T09:52:01;22.00;87.00
46508;DHT22;32223;53.654;10.014;2023-05-15T09:54:27;22.10;87.20
46508;DHT22;32223;53.654;10.014;2023-05-15T09:57:09;22.20;88.90
46508;DHT22;32223;53.654;10.014;2023-05-15T09:59:34;22.20;89.90
46508;DHT22;32223;53.654;10.014;2023-05-15T10:02:00;22.40;89.00
46508;DHT22;32223;53.654;10.014;2023-05-15T10:04:26;22.50;86.50
46508;DHT22;32223;53.654;10.014;2023-05-15T10:06:58;22.60;84.80
46508;DHT22;32223;53.654;10.014;2023-05-15T10:09:29;22.70;83.30
46508;DHT22;32223;53.654;10.014;2023-05-15T10:11:56;22.70;83.60
46508;DHT22;32223;53.654;10.014;2023-05-15T10:14:23;22.60;83.30
46508;DHT22;32223;53.654;10.014;2023-05-15T10:16:51;22.60;85.10
46508;DHT22;32223;53.654;10.014;2023-05-15T10:19:21;22.70;87.60
46508;DHT22;32223;53.654;10.014;2023-05-15T10:21:49;22.90;81.90
46508;DHT22;32223;53.654;10.014;2023-05-15T10:24:15;23.20;81.50
46508;DHT22;32223;53.654;10.014;2023-05-15T10:26:43;23.20;80.00
46508;DHT22;32223;53.654;10.014;2023-05-15T10:29:13;23.30;81.80
46508;DHT22;32223;53.654;10.014;2023-05-15T10:31:40;23.40;82.60
46508;DHT22;32223;53.654;10.014;2023-05-15T10:34:06;23.40;81.70
46508;DHT22;32223;53.654;10.014;2023-05-15T10:36:37;23.50;78.10
46508;DHT22;32223;53.654;10.014;2023-05-15T10:39:04;23.40;79.40
46508;DHT22;32223;53.654;10.014;2023-05-15T10:41:38;23.40;77.10
46508;DHT22;32223;53.654;10.014;2023-05-15T10:44:04;23.20;79.70
46508;DHT22;32223;53.654;10.014;2023-05-15T10:46:32;22.90;77.10
46508;DHT22;32223;53.654;10.014;2023-05-15T10:48:58;23.00;78.20
46508;DHT22;32223;53.654;10.014;2023-05-15T10:51:27;23.00;77.40
46508;DHT22;32223;53.654;10.014;2023-05-15T10:53:54;23.20;79.20
46508;DHT22;32223;53.654;10.014;2023-05-15T10:56:24;23.20;78.90
46508;DHT22;32223;53.654;10.014;2023-05-15T10:58:50;23.20;80.70
46508;DHT22;32223;53.654;10.014;2023-05-15T11:01:27;23.20;78.60
46508;DHT22;32223;53.654;10.014;2023-05-15T11:06:36;23.40;78.20
46508;DHT22;32223;53.654;10.014;2023-05-15T11:11:57;23.50;77.30
46508;DHT22;32223;53.654;10.014;2023-05-15T11:14:43;23.40;74.30
46508;DHT22;32223;53.654;10.014;2023-05-15T11:17:31;23.20;75.20
46508;DHT22;32223;53.654;10.014;2023-05-15T11:19:58;23.10;75.20
46508;DHT22;32223;53.654;10.014;2023-05-15T11:22:33;23.00;74.90
46508;DHT22;32223;53.654;10.014;2023-05-15T11:25:08;22.80;72.10
46508;DHT22;32223;53.654;10.014;2023-05-15T11:41:16;24.60;70.80
46508;DHT22;32223;53.654;10.014;2023-05-15T11:43:42;24.80;70.50
46508;DHT22;32223;53.654;10.014;2023-05-15T11:46:09;24.60;69.50
46508;DHT22;32223;53.654;10.014;2023-05-15T11:51:04;23.80;71.60
46508;DHT22;32223;53.654;10.014;2023-05-15T11:53:31;23.40;71.20
46508;DHT22;32223;53.654;10.014;2023-05-15T11:55:58;23.00;72.90
46508;DHT22;32223;53.654;10.014;2023-05-15T11:58:24;22.70;71.80
46508;DHT22;32223;53.654;10.014;2023-05-15T12:00:51;22.60;73.00
46508;DHT22;32223;53.654;10.014;2023-05-15T12:03:26;22.60;74.60
46508;DHT22;32223;53.654;10.014;2023-05-15T12:05:52;22.50;71.80
46508;DHT22;32223;53.654;10.014;2023-05-15T12:08:19;22.40;73.80
46508;DHT22;32223;53.654;10.014;2023-05-15T12:10:48;22.30;73.30
46508;DHT22;32223;53.654;10.014;2023-05-15T12:13:16;22.20;73.60
46508;DHT22;32223;53.654;10.014;2023-05-15T12:15:44;22.10;74.70
46508;DHT22;32223;53.654;10.014;2023-05-15T12:18:10;22.00;75.60
46508;DHT22;32223;53.654;10.014;2023-05-15T12:20:38;21.90;75.40
46508;DHT22;32223;53.654;10.014;2023-05-15T12:23:05;21.70;80.20
46508;DHT22;32223;53.654;10.014;2023-05-15T12:25:35;21.50;77.60
46508;DHT22;32223;53.654;10.014;2023-05-15T12:28:02;21.40;78.10
46508;DHT22;32223;53.654;10.014;2023-05-15T12:30:32;21.40;78.50
46508;DHT22;32223;53.654;10.014;2023-05-15T12:33:03;21.40;79.90
46508;DHT22;32223;53.654;10.014;2023-05-15T12:35:31;21.30;80.10
46508;DHT22;32223;53.654;10.014;2023-05-15T12:37:59;21.40;78.70
46508;DHT22;32223;53.654;10.014;2023-05-15T12:40:25;21.40;78.20
46508;DHT22;32223;53.654;10.014;2023-05-15T12:42:52;21.40;76.90
46508;DHT22;32223;53.654;10.014;2023-05-15T12:45:20;21.40;80.00
46508;DHT22;32223;53.654;10.014;2023-05-15T12:47:49;21.40;83.70
46508;DHT22;32223;53.654;10.014;2023-05-15T12:50:17;21.40;88.00
46508;DHT22;32223;53.654;10.014;2023-05-15T12:57:49;21.10;92.20
46508;DHT22;32223;53.654;10.014;2023-05-15T13:00:15;21.10;93.00
46508;DHT22;32223;53.654;10.014;2023-05-15T13:02:44;21.10;94.00
46508;DHT22;32223;53.654;10.014;2023-05-15T13:05:10;21.10;95.10
46508;DHT22;32223;53.654;10.014;2023-05-15T13:07:39;21.10;96.80
46508;DHT22;32223;53.654;10.014;2023-05-15T13:10:06;20.90;98.00
46508;DHT22;32223;53.654;10.014;2023-05-15T13:15:03;20.90;99.90
46508;DHT22;32223;53.654;10.014;2023-05-15T13:17:29;20.70;99.90
46508;DHT22;32223;53.654;10.014;2023-05-15T13:19:55;20.70;99.90
46508;DHT22;32223;53.654;10.014;2023-05-15T13:22:20;20.70;99.90
46508;DHT22;32223;53.654;10.014;2023-05-15T13:24:46;20.60;99.90
46508;DHT22;32223;53.654;10.014;2023-05-15T13:27:11;20.60;99.90
46508;DHT22;32223;53.654;10.014;2023-05-15T13:29:37;20.60;99.90
46508;DHT22;32223;53.654;10.014;2023-05-15T13:32:03;20.50;99.90
46508;DHT22;32223;53.654;10.014;2023-05-15T13:34:28;20.50;99.90
46508;DHT22;32223;53.654;10.014;2023-05-15T13:36:54;20.40;99.90
46508;DHT22;32223;53.654;10.014;2023-05-15T13:39:19;20.50;99.90
46508;DHT22;32223;53.654;10.014;2023-05-15T13:41:45;20.50;99.90
46508;DHT22;32223;53.654;10.014;2023-05-15T13:44:11;20.60;99.90
46508;DHT22;32223;53.654;10.014;2023-05-15T13:46:36;20.60;99.90
46508;DHT22;32223;53.654;10.014;2023-05-15T13:49:02;20.80;99.90
46508;DHT22;32223;53.654;10.014;2023-05-15T13:51:27;20.80;99.90
46508;DHT22;32223;53.654;10.014;2023-05-15T13:53:53;20.80;99.90
46508;DHT22;32223;53.654;10.014;2023-05-15T13:56:18;20.70;99.90
46508;DHT22;32223;53.654;10.014;2023-05-15T13:58:44;20.60;99.90
46508;DHT22;32223;53.654;10.014;2023-05-15T14:01:10;20.60;99.90
46508;DHT22;32223;53.654;10.014;2023-05-15T14:03:36;20.50;99.90
46508;DHT22;32223;53.654;10.014;2023-05-15T14:06:01;20.50;99.90
46508;DHT22;32223;53.654;10.014;2023-05-15T14:08:27;20.50;99.90
46508;DHT22;32223;53.654;10.014;2023-05-15T14:10:52;20.50;99.90
46508;DHT22;32223;53.654;10.014;2023-05-15T14:13:18;20.50;99.90
46508;DHT22;32223;53.654;10.014;2023-05-15T14:15:44;20.70;99.90
46508;DHT22;32223;53.654;10.014;2023-05-15T14:18:09;21.50;99.90
46508;DHT22;32223;53.654;10.014;2023-05-15T14:20:35;22.10;99.90
46508;DHT22;32223;53.654;10.014;2023-05-15T14:23:00;22.70;99.90
46508;DHT22;32223;53.654;10.014;2023-05-15T14:25:26;23.10;99.90
46508;DHT22;32223;53.654;10.014;2023-05-15T14:27:52;23.50;99.90
46508;DHT22;32223;53.654;10.014;2023-05-15T14:30:17;23.70;99.90
46508;DHT22;32223;53.654;10.014;2023-05-15T14:32:43;23.90;99.90
46508;DHT22;32223;53.654;10.014;2023-05-15T14:35:08;24.60;99.90
46508;DHT22;32223;53.654;10.014;2023-05-15T14:37:35;24.70;99.90
46508;DHT22;32223;53.654;10.014;2023-05-15T14:40:01;25.20;99.90
46508;DHT22;32223;53.654;10.014;2023-05-15T14:42:26;25.70;99.90
46508;DHT22;32223;53.654;10.014;2023-05-15T14:44:52;26.40;99.90
46508;DHT22;32223;53.654;10.014;2023-05-15T14:47:17;27.30;99.90
46508;DHT22;32223;53.654;10.014;2023-05-15T14:49:43;27.10;99.60
46508;DHT22;32223;53.654;10.014;2023-05-15T14:52:09;26.50;97.50
46508;DHT22;32223;53.654;10.014;2023-05-15T14:54:37;25.80;98.30
46508;DHT22;32223;53.654;10.014;2023-05-15T14:57:03;25.20;96.40
46508;DHT22;32223;53.654;10.014;2023-05-15T14:59:28;24.60;96.70
46508;DHT22;32223;53.654;10.014;2023-05-15T15:01:54;24.20;98.80
46508;DHT22;32223;53.654;10.014;2023-05-15T15:04:20;23.90;99.80
46508;DHT22;32223;53.654;10.014;2023-05-15T15:06:48;23.60;99.90
46508;DHT22;32223;53.654;10.014;2023-05-15T15:09:14;23.40;99.90
46508;DHT22;32223;53.654;10.014;2023-05-15T15:11:39;23.00;99.90
46508;DHT22;32223;53.654;10.014;2023-05-15T15:14:05;23.20;99.90
46508;DHT22;32223;53.654;10.014;2023-05-15T15:16:32;23.00;99.90
46508;DHT22;32223;53.654;10.014;2023-05-15T15:18:58;23.00;99.90
46508;DHT22;32223;53.654;10.014;2023-05-15T15:21:23;22.70;99.90
46508;DHT22;32223;53.654;10.014;2023-05-15T15:23:49;22.90;99.90
46508;DHT22;32223;53.654;10.014;2023-05-15T15:26:15;23.60;99.90
46508;DHT22;32223;53.654;10.014;2023-05-15T15:28:40;24.60;99.90
46508;DHT22;32223;53.654;10.014;2023-05-15T15:31:06;25.60;98.30
46508;DHT22;32223;53.654;10.014;2023-05-15T15:33:33;26.20;96.40
46508;DHT22;32223;53.654;10.014;2023-05-15T15:35:59;26.90;95.00
46508;DHT22;32223;53.654;10.014;2023-05-15T15:38:24;26.90;92.90
46508;DHT22;32223;53.654;10.014;2023-05-15T15:40:50;26.50;90.80
46508;DHT22;32223;53.654;10.014;2023-05-15T15:43:15;26.00;88.10
46508;DHT22;32223;53.654;10.014;2023-05-15T15:45:41;25.30;86.20
46508;DHT22;32223;53.654;10.014;2023-05-15T15:48:07;24.90;85.30
46508;DHT22;32223;53.654;10.014;2023-05-15T15:50:32;24.90;87.50
46508;DHT22;32223;53.654;10.014;2023-05-15T15:52:58;25.00;86.00
46508;DHT22;32223;53.654;10.014;2023-05-15T15:55:24;25.00;83.00
46508;DHT22;32223;53.654;10.014;2023-05-15T15:57:49;24.60;82.70
46508;DHT22;32223;53.654;10.014;2023-05-15T16:00:15;24.00;84.20
46508;DHT22;32223;53.654;10.014;2023-05-15T16:02:41;23.70;85.20